KLM649 EHAM-PANC
Flight info
| Callsign | KLM649 |
|---|---|
| Flight time | N/A |
| Altitude | 34000 |
| Route | BERGI DCT LONAM DCT SOSAR/M084F340 DCT 69N010W 75N020W 80N040W/M084F360 82N060W/N0484F360 82N070W 82N080W 81N100W 78N120W 75N130W DCT ADREW/N0487F380 J160 FYU J120 FAI DCT PUYVO KROTO5 |
| Aircraft | B772/H-SDE2E3FGHIJ5LORVWXY/LB1D1 |
Departure
| Time | 2026-05-04 07:49 |
|---|---|
| Airport | Amsterdam Airport Schiphol (EHAM) |
Arrival
| Time | N/A |
|---|---|
| Airport | Ted Stevens Anchorage International Airport (PANC) |
| Time | Latitude | Longitude | Altitude | Speed | Heading |
|---|---|---|---|---|---|
| 2026-05-04 07:20 | 52.30924 | 4.76713 | 5 ft | 0 kts | 183° |
| 2026-05-04 07:33 | 52.30935 | 4.76714 | 5 ft | 2 kts | 187° |
| 2026-05-04 07:33 | 52.30949 | 4.76718 | 5 ft | 2 kts | 193° |
| 2026-05-04 07:34 | 52.30964 | 4.76724 | 5 ft | 2 kts | 197° |
| 2026-05-04 07:34 | 52.30978 | 4.76732 | 5 ft | 2 kts | 203° |
| 2026-05-04 07:34 | 52.30992 | 4.76742 | 5 ft | 2 kts | 208° |
| 2026-05-04 07:34 | 52.31005 | 4.76754 | 5 ft | 2 kts | 213° |
| 2026-05-04 07:35 | 52.31017 | 4.76768 | 5 ft | 2 kts | 218° |
| 2026-05-04 07:35 | 52.31028 | 4.76784 | 5 ft | 2 kts | 223° |
| 2026-05-04 07:35 | 52.31039 | 4.76801 | 5 ft | 2 kts | 228° |
| 2026-05-04 07:35 | 52.31049 | 4.76820 | 5 ft | 2 kts | 233° |
| 2026-05-04 07:36 | 52.31057 | 4.76839 | 5 ft | 2 kts | 238° |
| 2026-05-04 07:36 | 52.31065 | 4.76861 | 5 ft | 2 kts | 243° |
| 2026-05-04 07:38 | 52.31083 | 4.76970 | 5 ft | 2 kts | 267° |
| 2026-05-04 07:38 | 52.31084 | 4.76994 | 5 ft | 2 kts | 272° |
| 2026-05-04 07:38 | 52.31083 | 4.77018 | 5 ft | 2 kts | 275° |
| 2026-05-04 07:38 | 52.31081 | 4.77043 | 5 ft | 2 kts | 275° |
| 2026-05-04 07:39 | 52.31081 | 4.77058 | 5 ft | 0 kts | 274° |
| 2026-05-04 07:39 | 52.31081 | 4.77057 | 5 ft | 0 kts | 274° |
| 2026-05-04 07:40 | 52.31100 | 4.76975 | 5 ft | 18 kts | 317° |
| 2026-05-04 07:40 | 52.31249 | 4.77046 | 5 ft | 25 kts | 36° |
| 2026-05-04 07:41 | 52.31382 | 4.77193 | 5 ft | 15 kts | 33° |
| 2026-05-04 07:41 | 52.31421 | 4.77272 | 5 ft | 5 kts | 107° |
| 2026-05-04 07:41 | 52.31385 | 4.77344 | 5 ft | 10 kts | 134° |
| 2026-05-04 07:41 | 52.31337 | 4.77427 | 5 ft | 10 kts | 134° |
| 2026-05-04 07:42 | 52.31267 | 4.77508 | 5 ft | 15 kts | 177° |
| 2026-05-04 07:42 | 52.31117 | 4.77499 | 5 ft | 24 kts | 183° |
| 2026-05-04 07:42 | 52.30951 | 4.77479 | 5 ft | 23 kts | 183° |
| 2026-05-04 07:42 | 52.30794 | 4.77465 | 5 ft | 19 kts | 183° |
| 2026-05-04 07:43 | 52.30686 | 4.77458 | 5 ft | 14 kts | 174° |
| 2026-05-04 07:43 | 52.30641 | 4.77482 | 5 ft | 0 kts | 153° |
| 2026-05-04 07:44 | 52.30640 | 4.77483 | 5 ft | 2 kts | 153° |
| 2026-05-04 07:44 | 52.30576 | 4.77537 | 5 ft | 13 kts | 153° |
| 2026-05-04 07:44 | 52.30534 | 4.77573 | 5 ft | 0 kts | 153° |
| 2026-05-04 07:45 | 52.30527 | 4.77579 | 5 ft | 6 kts | 153° |
| 2026-05-04 07:45 | 52.30437 | 4.77647 | 5 ft | 13 kts | 178° |
| 2026-05-04 07:45 | 52.30408 | 4.77617 | 5 ft | 0 kts | 238° |
| 2026-05-04 07:46 | 52.30393 | 4.77579 | 5 ft | 20 kts | 238° |
| 2026-05-04 07:46 | 52.30204 | 4.77083 | 5 ft | 81 kts | 237° |
| 2026-05-04 07:47 | 52.29809 | 4.76061 | 6 ft | 131 kts | 238° |
| 2026-05-04 07:47 | 52.29253 | 4.74610 | 28 ft | 168 kts | 238° |
| 2026-05-04 07:47 | 52.28622 | 4.72983 | 378 ft | 173 kts | 236° |
| 2026-05-04 07:49 | 52.23163 | 4.58408 | 3625 ft | 256 kts | 270° |
| 2026-05-04 07:49 | 52.23533 | 4.55541 | 4001 ft | 262 kts | 297° |
| 2026-05-04 07:49 | 52.24677 | 4.53247 | 4465 ft | 264 kts | 322° |
| 2026-05-04 07:50 | 52.26210 | 4.51586 | 5011 ft | 265 kts | 328° |
| 2026-05-04 07:50 | 52.27790 | 4.50037 | 5485 ft | 267 kts | 328° |
| 2026-05-04 07:50 | 52.29382 | 4.48473 | 5946 ft | 270 kts | 328° |
| 2026-05-04 07:50 | 52.30993 | 4.46876 | 6422 ft | 272 kts | 328° |
| 2026-05-04 07:51 | 52.32613 | 4.45265 | 6904 ft | 273 kts | 327° |
| 2026-05-04 07:51 | 52.34249 | 4.43635 | 7375 ft | 275 kts | 327° |
| 2026-05-04 07:51 | 52.35960 | 4.42279 | 7807 ft | 279 kts | 344° |
| 2026-05-04 07:51 | 52.37877 | 4.41759 | 8236 ft | 283 kts | 352° |
| 2026-05-04 07:52 | 52.39829 | 4.41449 | 8688 ft | 285 kts | 353° |
| 2026-05-04 07:52 | 52.41804 | 4.41152 | 9125 ft | 287 kts | 353° |
| 2026-05-04 07:52 | 52.43801 | 4.40842 | 9565 ft | 289 kts | 353° |
| 2026-05-04 07:52 | 52.45786 | 4.40529 | 9994 ft | 291 kts | 352° |
| 2026-05-04 07:53 | 52.47842 | 4.40202 | 10180 ft | 303 kts | 352° |
| 2026-05-04 07:54 | 52.64872 | 4.37491 | 11547 ft | 380 kts | 352° |
| 2026-05-04 07:55 | 52.67491 | 4.37073 | 12003 ft | 383 kts | 352° |
| 2026-05-04 07:55 | 52.70138 | 4.36650 | 12475 ft | 386 kts | 352° |
| 2026-05-04 07:55 | 52.72832 | 4.36219 | 12953 ft | 389 kts | 352° |
| 2026-05-04 07:55 | 52.75489 | 4.35648 | 13416 ft | 389 kts | 346° |
| 2026-05-04 07:56 | 52.78151 | 4.34691 | 13913 ft | 392 kts | 344° |
| 2026-05-04 07:56 | 52.80798 | 4.33700 | 14447 ft | 393 kts | 344° |
| 2026-05-04 07:56 | 52.83467 | 4.32699 | 14947 ft | 396 kts | 344° |
| 2026-05-04 07:56 | 52.86145 | 4.31695 | 15429 ft | 400 kts | 344° |
| 2026-05-04 07:57 | 52.88880 | 4.30670 | 15919 ft | 403 kts | 343° |
| 2026-05-04 07:57 | 52.91610 | 4.29646 | 16407 ft | 406 kts | 344° |
| 2026-05-04 07:57 | 52.94347 | 4.28618 | 16877 ft | 409 kts | 343° |
| 2026-05-04 07:57 | 52.97149 | 4.27565 | 17332 ft | 412 kts | 344° |
| 2026-05-04 07:58 | 52.99923 | 4.26522 | 17801 ft | 415 kts | 344° |
| 2026-05-04 07:58 | 53.02757 | 4.25454 | 18279 ft | 417 kts | 344° |
| 2026-05-04 07:58 | 53.05568 | 4.24394 | 18690 ft | 420 kts | 343° |
| 2026-05-04 07:58 | 53.08408 | 4.23322 | 19126 ft | 423 kts | 343° |
| 2026-05-04 07:59 | 53.11298 | 4.22229 | 19560 ft | 426 kts | 343° |
| 2026-05-04 07:59 | 53.14186 | 4.21135 | 19979 ft | 429 kts | 343° |
| 2026-05-04 07:59 | 53.17096 | 4.20032 | 20397 ft | 431 kts | 343° |
| 2026-05-04 07:59 | 53.20020 | 4.18922 | 20800 ft | 434 kts | 343° |
| 2026-05-04 08:00 | 53.22961 | 4.17804 | 21219 ft | 436 kts | 343° |
| 2026-05-04 08:00 | 53.25920 | 4.16678 | 21621 ft | 438 kts | 343° |
| 2026-05-04 08:00 | 53.28900 | 4.15541 | 22019 ft | 441 kts | 343° |
| 2026-05-04 08:02 | 53.50064 | 4.07425 | 24577 ft | 456 kts | 343° |
| 2026-05-04 08:02 | 53.53184 | 4.06221 | 24902 ft | 458 kts | 343° |
| 2026-05-04 08:02 | 53.56278 | 4.05026 | 25218 ft | 460 kts | 343° |
| 2026-05-04 08:03 | 53.59375 | 4.03827 | 25535 ft | 462 kts | 343° |
| 2026-05-04 08:03 | 53.62514 | 4.02612 | 25878 ft | 464 kts | 343° |
| 2026-05-04 08:03 | 53.65638 | 4.01399 | 26181 ft | 466 kts | 343° |
| 2026-05-04 08:03 | 53.68804 | 4.00169 | 26489 ft | 468 kts | 343° |
| 2026-05-04 08:04 | 53.71980 | 3.98932 | 26797 ft | 469 kts | 343° |
| 2026-05-04 08:04 | 53.75142 | 3.97700 | 27066 ft | 472 kts | 343° |
| 2026-05-04 08:04 | 53.78360 | 3.96443 | 27322 ft | 474 kts | 343° |
| 2026-05-04 08:04 | 53.81536 | 3.95201 | 27604 ft | 476 kts | 343° |
| 2026-05-04 08:05 | 53.84728 | 3.93681 | 27858 ft | 474 kts | 337° |
| 2026-05-04 08:05 | 53.87789 | 3.91693 | 28103 ft | 476 kts | 335° |
| 2026-05-04 08:05 | 53.90882 | 3.89611 | 28353 ft | 477 kts | 335° |
| 2026-05-04 08:05 | 53.93930 | 3.87553 | 28619 ft | 479 kts | 335° |
| 2026-05-04 08:06 | 53.97039 | 3.85451 | 28885 ft | 480 kts | 335° |
| 2026-05-04 08:06 | 54.00139 | 3.83353 | 29132 ft | 482 kts | 335° |
| 2026-05-04 08:06 | 54.03240 | 3.81251 | 29372 ft | 483 kts | 335° |
| 2026-05-04 08:06 | 54.06330 | 3.79154 | 29654 ft | 484 kts | 335° |
| 2026-05-04 08:08 | 54.28055 | 3.64320 | 31821 ft | 478 kts | 336° |
| 2026-05-04 08:08 | 54.31094 | 3.62231 | 32049 ft | 478 kts | 336° |
| 2026-05-04 08:10 | 54.55445 | 3.45375 | 33998 ft | 472 kts | 336° |
| 2026-05-04 08:11 | 54.58481 | 3.43258 | 34009 ft | 471 kts | 336° |
| 2026-05-04 08:11 | 54.67514 | 3.36940 | 34016 ft | 467 kts | 337° |
| 2026-05-04 08:12 | 54.73486 | 3.32746 | 34024 ft | 467 kts | 336° |
| 2026-05-04 08:12 | 54.79466 | 3.28532 | 34024 ft | 466 kts | 336° |
| 2026-05-04 08:13 | 54.85441 | 3.24309 | 34012 ft | 463 kts | 336° |
| 2026-05-04 08:13 | 54.91392 | 3.20090 | 34014 ft | 464 kts | 337° |
| 2026-05-04 08:14 | 54.97355 | 3.15848 | 34011 ft | 465 kts | 337° |
| 2026-05-04 08:16 | 55.21035 | 2.98868 | 34016 ft | 459 kts | 338° |
| 2026-05-04 08:16 | 55.26907 | 2.94624 | 34020 ft | 458 kts | 337° |
| 2026-05-04 08:17 | 55.32816 | 2.90339 | 34018 ft | 459 kts | 338° |
| 2026-05-04 08:17 | 55.38651 | 2.86094 | 34024 ft | 457 kts | 338° |
| 2026-05-04 08:19 | 55.61937 | 2.69017 | 34012 ft | 452 kts | 338° |
| 2026-05-04 08:20 | 55.67722 | 2.64740 | 34014 ft | 452 kts | 338° |
| 2026-05-04 08:20 | 55.73493 | 2.60460 | 34015 ft | 452 kts | 338° |
| 2026-05-04 08:21 | 55.79254 | 2.56173 | 34013 ft | 451 kts | 338° |
| 2026-05-04 08:21 | 55.85014 | 2.51874 | 34013 ft | 449 kts | 338° |
| 2026-05-04 08:22 | 55.90752 | 2.47577 | 34017 ft | 450 kts | 338° |
| 2026-05-04 08:24 | 56.13605 | 2.30325 | 34009 ft | 446 kts | 337° |
| 2026-05-04 08:24 | 56.19306 | 2.25987 | 34015 ft | 446 kts | 337° |
| 2026-05-04 08:25 | 56.25002 | 2.21638 | 34011 ft | 447 kts | 337° |
| 2026-05-04 08:25 | 56.30656 | 2.17307 | 34002 ft | 445 kts | 337° |
| 2026-05-04 08:27 | 56.53310 | 1.99814 | 34000 ft | 444 kts | 336° |
| 2026-05-04 08:28 | 56.58960 | 1.95416 | 33999 ft | 444 kts | 336° |
| 2026-05-04 08:28 | 56.64598 | 1.91012 | 33997 ft | 443 kts | 336° |
| 2026-05-04 08:29 | 56.70266 | 1.86571 | 33994 ft | 442 kts | 336° |
| 2026-05-04 08:31 | 56.92704 | 1.68844 | 33977 ft | 442 kts | 336° |
| 2026-05-04 08:33 | 57.15138 | 1.50886 | 33978 ft | 440 kts | 335° |
| 2026-05-04 08:35 | 57.37370 | 1.32852 | 33978 ft | 438 kts | 334° |
| 2026-05-04 08:35 | 57.42925 | 1.28309 | 33973 ft | 437 kts | 334° |
| 2026-05-04 08:37 | 57.62308 | 1.12335 | 33964 ft | 438 kts | 334° |
| 2026-05-04 08:38 | 57.67829 | 1.07752 | 33960 ft | 435 kts | 334° |
| 2026-05-04 08:38 | 57.73336 | 1.03164 | 33955 ft | 436 kts | 334° |
| 2026-05-04 08:40 | 57.95428 | 0.84604 | 33946 ft | 436 kts | 333° |
| 2026-05-04 08:41 | 58.00944 | 0.79931 | 33945 ft | 436 kts | 333° |
| 2026-05-04 08:41 | 58.06432 | 0.75265 | 33940 ft | 436 kts | 333° |
| 2026-05-04 08:42 | 58.11953 | 0.70556 | 33949 ft | 436 kts | 333° |
| 2026-05-04 08:42 | 58.17426 | 0.65872 | 33941 ft | 434 kts | 333° |
| 2026-05-04 08:43 | 58.22915 | 0.61158 | 33938 ft | 436 kts | 333° |
| 2026-05-04 08:43 | 58.28388 | 0.56442 | 33939 ft | 434 kts | 333° |
| 2026-05-04 08:44 | 58.33862 | 0.51709 | 33930 ft | 434 kts | 333° |
| 2026-05-04 08:46 | 58.55748 | 0.32621 | 33926 ft | 433 kts | 331° |
| 2026-05-04 08:46 | 58.61206 | 0.27820 | 33916 ft | 431 kts | 331° |
| 2026-05-04 08:47 | 58.66502 | 0.23145 | 33917 ft | 432 kts | 331° |
| 2026-05-04 08:47 | 58.71956 | 0.18315 | 33914 ft | 432 kts | 331° |
| 2026-05-04 08:48 | 58.77385 | 0.13490 | 33912 ft | 432 kts | 331° |
| 2026-05-04 08:48 | 58.82811 | 0.08651 | 33901 ft | 433 kts | 331° |
| 2026-05-04 08:49 | 58.88270 | 0.03766 | 33882 ft | 432 kts | 331° |
| 2026-05-04 08:50 | 59.07244 | -0.13347 | 33898 ft | 431 kts | 330° |
| 2026-05-04 08:51 | 59.12646 | -0.18258 | 33906 ft | 431 kts | 330° |
| 2026-05-04 08:51 | 59.18051 | -0.23189 | 33903 ft | 429 kts | 330° |
| 2026-05-04 08:52 | 59.23447 | -0.28129 | 33899 ft | 430 kts | 330° |
| 2026-05-04 08:52 | 59.28843 | -0.33086 | 33896 ft | 429 kts | 330° |
| 2026-05-04 08:54 | 59.50303 | -0.52975 | 33890 ft | 428 kts | 330° |
| 2026-05-04 08:55 | 59.55640 | -0.57965 | 33886 ft | 427 kts | 330° |
| 2026-05-04 08:55 | 59.60995 | -0.62990 | 33887 ft | 427 kts | 330° |
| 2026-05-04 09:01 | 60.16299 | -1.15946 | 33895 ft | 420 kts | 328° |
| 2026-05-04 09:01 | 60.21543 | -1.21070 | 33878 ft | 420 kts | 328° |
| 2026-05-04 09:02 | 60.26774 | -1.26202 | 33901 ft | 422 kts | 328° |
| 2026-05-04 09:02 | 60.31987 | -1.31330 | 33886 ft | 419 kts | 328° |
| 2026-05-04 09:03 | 60.37240 | -1.36522 | 33874 ft | 421 kts | 328° |
| 2026-05-04 09:03 | 60.42462 | -1.41697 | 33893 ft | 420 kts | 328° |
| 2026-05-04 09:04 | 60.47702 | -1.46910 | 33899 ft | 418 kts | 328° |
| 2026-05-04 09:04 | 60.52874 | -1.52075 | 33887 ft | 418 kts | 328° |
| 2026-05-04 09:05 | 60.58087 | -1.57299 | 33893 ft | 418 kts | 328° |
| 2026-05-04 09:05 | 60.63245 | -1.62487 | 33891 ft | 417 kts | 328° |
| 2026-05-04 09:06 | 60.68431 | -1.67722 | 33902 ft | 416 kts | 327° |
| 2026-05-04 09:08 | 60.89021 | -1.88693 | 33903 ft | 415 kts | 327° |
| 2026-05-04 09:08 | 60.94167 | -1.93981 | 33893 ft | 412 kts | 327° |
| 2026-05-04 09:09 | 60.99295 | -1.99272 | 33875 ft | 415 kts | 327° |
| 2026-05-04 09:09 | 61.04631 | -2.03759 | 33917 ft | 422 kts | 334° |
| 2026-05-04 09:10 | 61.10183 | -2.07593 | 33846 ft | 422 kts | 334° |
| 2026-05-04 09:10 | 61.15742 | -2.11547 | 33859 ft | 423 kts | 334° |
| 2026-05-04 09:11 | 61.21261 | -2.15538 | 33901 ft | 424 kts | 333° |
| 2026-05-04 09:11 | 61.26805 | -2.19589 | 33876 ft | 423 kts | 334° |
| 2026-05-04 09:12 | 61.32346 | -2.23667 | 33912 ft | 428 kts | 333° |
| 2026-05-04 09:14 | 61.54682 | -2.40292 | 33886 ft | 428 kts | 334° |
| 2026-05-04 09:14 | 61.60305 | -2.44523 | 33879 ft | 432 kts | 334° |
| 2026-05-04 09:15 | 61.65901 | -2.48746 | 33888 ft | 431 kts | 334° |
| 2026-05-04 09:15 | 61.71541 | -2.53021 | 33877 ft | 430 kts | 334° |
| 2026-05-04 09:17 | 61.97001 | -2.72526 | 33888 ft | 435 kts | 334° |
| 2026-05-04 09:18 | 62.02652 | -2.76903 | 33902 ft | 437 kts | 334° |
| 2026-05-04 09:18 | 62.08348 | -2.81331 | 33886 ft | 437 kts | 334° |
| 2026-05-04 09:19 | 62.14077 | -2.85805 | 33902 ft | 440 kts | 334° |
| 2026-05-04 09:19 | 62.19751 | -2.90250 | 33906 ft | 437 kts | 334° |
| 2026-05-04 09:20 | 62.25417 | -2.94709 | 33892 ft | 437 kts | 334° |
| 2026-05-04 09:20 | 62.31150 | -2.99240 | 33910 ft | 439 kts | 334° |
| 2026-05-04 09:21 | 62.36858 | -3.03768 | 33919 ft | 440 kts | 334° |
| 2026-05-04 09:21 | 62.42578 | -3.08325 | 33902 ft | 441 kts | 334° |
| 2026-05-04 09:22 | 62.48318 | -3.12915 | 33895 ft | 440 kts | 334° |
| 2026-05-04 09:22 | 62.54061 | -3.17529 | 33913 ft | 444 kts | 334° |
| 2026-05-04 09:23 | 62.59817 | -3.22170 | 33907 ft | 443 kts | 334° |
| 2026-05-04 09:23 | 62.65530 | -3.26796 | 33896 ft | 443 kts | 334° |
| 2026-05-04 09:25 | 62.88598 | -3.45674 | 33899 ft | 445 kts | 334° |
| 2026-05-04 09:26 | 62.94355 | -3.50434 | 33897 ft | 446 kts | 334° |
| 2026-05-04 09:26 | 63.00181 | -3.55272 | 33905 ft | 446 kts | 334° |
| 2026-05-04 09:27 | 63.05945 | -3.60080 | 33911 ft | 448 kts | 335° |
| 2026-05-04 09:27 | 63.11721 | -3.64915 | 33913 ft | 445 kts | 335° |
| 2026-05-04 09:28 | 63.17525 | -3.69800 | 33915 ft | 449 kts | 334° |
| 2026-05-04 09:28 | 63.23299 | -3.74675 | 33920 ft | 446 kts | 334° |
| 2026-05-04 09:29 | 63.29098 | -3.79597 | 33917 ft | 451 kts | 334° |
| 2026-05-04 09:29 | 63.34902 | -3.84539 | 33906 ft | 448 kts | 334° |
| 2026-05-04 09:30 | 63.40747 | -3.89542 | 33907 ft | 449 kts | 334° |
| 2026-05-04 09:30 | 63.46550 | -3.94529 | 33911 ft | 450 kts | 334° |
| 2026-05-04 09:31 | 63.52338 | -3.99527 | 33905 ft | 452 kts | 334° |
| 2026-05-04 09:31 | 63.58182 | -4.04591 | 33903 ft | 448 kts | 334° |
| 2026-05-04 09:32 | 63.63921 | -4.09587 | 33897 ft | 443 kts | 334° |
| 2026-05-04 09:34 | 63.83516 | -4.26815 | 33903 ft | 426 kts | 334° |
| 2026-05-04 09:34 | 63.86274 | -4.29263 | 33893 ft | 430 kts | 335° |
| 2026-05-04 09:34 | 63.91884 | -4.34258 | 33894 ft | 438 kts | 335° |
| 2026-05-04 09:35 | 63.97584 | -4.39353 | 33888 ft | 446 kts | 335° |
| 2026-05-04 09:35 | 64.03381 | -4.44555 | 33888 ft | 454 kts | 335° |
| 2026-05-04 09:37 | 64.26840 | -4.65844 | 33900 ft | 455 kts | 334° |
| 2026-05-04 09:38 | 64.32707 | -4.71230 | 33890 ft | 457 kts | 334° |
| 2026-05-04 09:38 | 64.38577 | -4.76645 | 33886 ft | 456 kts | 334° |
| 2026-05-04 09:39 | 64.44070 | -4.81733 | 33877 ft | 456 kts | 334° |
| 2026-05-04 09:39 | 64.49933 | -4.87189 | 33881 ft | 456 kts | 334° |
| 2026-05-04 09:40 | 64.55797 | -4.92671 | 33883 ft | 456 kts | 334° |
| 2026-05-04 09:40 | 64.61613 | -4.98133 | 33872 ft | 452 kts | 334° |
| 2026-05-04 09:42 | 64.84817 | -5.20184 | 33865 ft | 457 kts | 335° |
| 2026-05-04 09:43 | 64.90646 | -5.25788 | 33869 ft | 458 kts | 335° |
| 2026-05-04 09:43 | 64.96536 | -5.31477 | 33861 ft | 459 kts | 335° |
| 2026-05-04 09:44 | 65.02367 | -5.37134 | 33859 ft | 456 kts | 335° |
| 2026-05-04 09:46 | 65.25827 | -5.60178 | 33850 ft | 460 kts | 335° |
| 2026-05-04 09:46 | 65.31662 | -5.65977 | 33848 ft | 458 kts | 334° |
| 2026-05-04 09:47 | 65.37573 | -5.71882 | 33851 ft | 460 kts | 334° |
| 2026-05-04 09:49 | 65.61134 | -5.95707 | 33837 ft | 462 kts | 335° |
| 2026-05-04 09:51 | 65.81808 | -6.17004 | 33802 ft | 465 kts | 335° |
| 2026-05-04 09:51 | 65.87709 | -6.23150 | 33804 ft | 465 kts | 335° |
| 2026-05-04 09:52 | 65.93643 | -6.29363 | 33798 ft | 464 kts | 335° |
| 2026-05-04 09:52 | 65.99518 | -6.35545 | 33790 ft | 464 kts | 335° |
| 2026-05-04 09:53 | 66.05473 | -6.41843 | 33778 ft | 465 kts | 335° |
| 2026-05-04 09:53 | 66.11342 | -6.48081 | 33782 ft | 465 kts | 335° |
| 2026-05-04 09:54 | 66.17266 | -6.54411 | 33786 ft | 466 kts | 335° |
| 2026-05-04 09:54 | 66.23178 | -6.60759 | 33774 ft | 466 kts | 335° |
| 2026-05-04 09:55 | 66.29091 | -6.67142 | 33770 ft | 466 kts | 334° |
| 2026-05-04 09:55 | 66.35004 | -6.73558 | 33767 ft | 465 kts | 334° |
| 2026-05-04 09:56 | 66.40929 | -6.80020 | 33757 ft | 467 kts | 334° |
| 2026-05-04 09:56 | 66.46858 | -6.86518 | 33753 ft | 467 kts | 334° |
| 2026-05-04 09:57 | 66.52746 | -6.93007 | 33753 ft | 467 kts | 334° |
| 2026-05-04 09:57 | 66.58692 | -6.99594 | 33752 ft | 467 kts | 335° |
| 2026-05-04 09:58 | 66.64571 | -7.06140 | 33730 ft | 467 kts | 335° |
| 2026-05-04 09:58 | 66.70492 | -7.12768 | 33724 ft | 468 kts | 335° |
| 2026-05-04 10:00 | 66.94128 | -7.39579 | 33723 ft | 468 kts | 335° |
| 2026-05-04 10:04 | 67.35497 | -7.87908 | 33717 ft | 469 kts | 334° |
| 2026-05-04 10:04 | 67.41410 | -7.94966 | 33721 ft | 470 kts | 334° |
| 2026-05-04 10:05 | 67.47311 | -8.02051 | 33714 ft | 470 kts | 334° |
| 2026-05-04 10:05 | 67.53258 | -8.09228 | 33716 ft | 470 kts | 334° |
| 2026-05-04 10:06 | 67.59161 | -8.16393 | 33716 ft | 469 kts | 334° |
| 2026-05-04 10:06 | 67.65020 | -8.23542 | 33716 ft | 468 kts | 334° |
| 2026-05-04 10:08 | 67.85491 | -8.48839 | 33725 ft | 470 kts | 335° |
| 2026-05-04 10:08 | 67.91389 | -8.56218 | 33726 ft | 470 kts | 335° |
| 2026-05-04 10:09 | 67.97227 | -8.63564 | 33739 ft | 469 kts | 335° |
| 2026-05-04 10:09 | 68.03112 | -8.71011 | 33746 ft | 470 kts | 334° |
| 2026-05-04 10:10 | 68.08991 | -8.78493 | 33744 ft | 469 kts | 334° |
| 2026-05-04 10:10 | 68.14842 | -8.85981 | 33751 ft | 470 kts | 334° |
| 2026-05-04 10:11 | 68.20718 | -8.93543 | 33750 ft | 470 kts | 334° |
| 2026-05-04 10:11 | 68.26575 | -9.01125 | 33753 ft | 470 kts | 334° |
| 2026-05-04 10:12 | 68.32450 | -9.08775 | 33765 ft | 470 kts | 334° |
| 2026-05-04 10:12 | 68.38316 | -9.16455 | 33766 ft | 470 kts | 334° |
| 2026-05-04 10:13 | 68.44154 | -9.24143 | 33768 ft | 470 kts | 334° |
| 2026-05-04 10:13 | 68.49991 | -9.31875 | 33772 ft | 470 kts | 334° |
| 2026-05-04 10:14 | 68.55875 | -9.39716 | 33778 ft | 470 kts | 334° |
| 2026-05-04 10:16 | 68.79257 | -9.71326 | 33813 ft | 472 kts | 333° |
| 2026-05-04 10:16 | 68.85116 | -9.79364 | 33816 ft | 471 kts | 333° |
| 2026-05-04 10:17 | 68.90923 | -9.87378 | 33821 ft | 471 kts | 333° |
| 2026-05-04 10:19 | 69.14703 | -10.17276 | 33835 ft | 472 kts | 338° |
| 2026-05-04 10:19 | 69.20711 | -10.24312 | 33849 ft | 472 kts | 338° |
| 2026-05-04 10:20 | 69.26707 | -10.31400 | 33845 ft | 471 kts | 338° |
| 2026-05-04 10:20 | 69.32744 | -10.38594 | 33850 ft | 472 kts | 338° |
| 2026-05-04 10:21 | 69.38729 | -10.45776 | 33862 ft | 472 kts | 338° |
| 2026-05-04 10:21 | 69.44767 | -10.53068 | 33864 ft | 472 kts | 338° |
| 2026-05-04 10:22 | 69.53761 | -10.64019 | 33875 ft | 472 kts | 338° |
| 2026-05-04 10:23 | 69.59775 | -10.71398 | 33892 ft | 472 kts | 337° |
| 2026-05-04 10:25 | 69.83754 | -11.01281 | 33914 ft | 473 kts | 337° |
| 2026-05-04 10:25 | 69.89722 | -11.08836 | 33910 ft | 472 kts | 337° |
| 2026-05-04 10:26 | 69.95744 | -11.16505 | 33913 ft | 473 kts | 337° |
| 2026-05-04 10:26 | 70.01711 | -11.24153 | 33915 ft | 473 kts | 337° |
| 2026-05-04 10:27 | 70.07729 | -11.31914 | 33920 ft | 474 kts | 337° |
| 2026-05-04 10:27 | 70.13708 | -11.39675 | 33933 ft | 474 kts | 337° |
| 2026-05-04 10:28 | 70.19685 | -11.47483 | 33941 ft | 474 kts | 337° |
| 2026-05-04 10:28 | 70.25655 | -11.55331 | 33942 ft | 474 kts | 337° |
| 2026-05-04 10:29 | 70.31661 | -11.63278 | 33946 ft | 474 kts | 337° |
| 2026-05-04 10:29 | 70.37650 | -11.71252 | 33956 ft | 474 kts | 336° |
| 2026-05-04 10:30 | 70.43633 | -11.79272 | 33961 ft | 475 kts | 336° |
| 2026-05-04 10:30 | 70.49622 | -11.87349 | 33967 ft | 475 kts | 336° |
| 2026-05-04 10:31 | 70.55576 | -11.95433 | 33970 ft | 474 kts | 336° |
| 2026-05-04 10:32 | 70.76472 | -12.24225 | 33989 ft | 475 kts | 336° |
| 2026-05-04 10:33 | 70.82412 | -12.32530 | 33994 ft | 475 kts | 336° |
| 2026-05-04 10:33 | 70.88367 | -12.40912 | 33993 ft | 475 kts | 336° |
| 2026-05-04 10:34 | 70.94349 | -12.49388 | 34002 ft | 476 kts | 336° |
| 2026-05-04 10:34 | 71.00295 | -12.57871 | 34001 ft | 475 kts | 336° |
| 2026-05-04 10:35 | 71.06263 | -12.66441 | 34010 ft | 475 kts | 335° |
| 2026-05-04 10:35 | 71.12228 | -12.75066 | 34016 ft | 475 kts | 335° |
| 2026-05-04 10:36 | 71.18158 | -12.83695 | 34024 ft | 475 kts | 335° |
| 2026-05-04 10:36 | 71.24112 | -12.92421 | 34024 ft | 475 kts | 335° |
| 2026-05-04 10:37 | 71.30024 | -13.01143 | 34030 ft | 475 kts | 335° |
| 2026-05-04 10:37 | 71.35973 | -13.09981 | 34034 ft | 476 kts | 335° |
| 2026-05-04 10:39 | 71.56724 | -13.41285 | 34044 ft | 475 kts | 335° |
| 2026-05-04 10:40 | 71.62639 | -13.50348 | 34053 ft | 475 kts | 335° |
| 2026-05-04 10:40 | 71.68534 | -13.59442 | 34059 ft | 476 kts | 335° |
| 2026-05-04 10:41 | 71.74440 | -13.68618 | 34060 ft | 477 kts | 335° |
| 2026-05-04 10:41 | 71.80375 | -13.77904 | 34064 ft | 477 kts | 335° |
| 2026-05-04 10:42 | 71.86285 | -13.87217 | 34068 ft | 476 kts | 335° |
| 2026-05-04 10:42 | 71.92201 | -13.96604 | 34068 ft | 476 kts | 335° |
| 2026-05-04 10:43 | 71.98083 | -14.06004 | 34071 ft | 477 kts | 335° |
| 2026-05-04 10:45 | 72.21680 | -14.44391 | 34092 ft | 476 kts | 335° |
| 2026-05-04 10:45 | 72.27555 | -14.54123 | 34097 ft | 476 kts | 335° |
| 2026-05-04 10:46 | 72.33417 | -14.63903 | 34108 ft | 477 kts | 335° |
| 2026-05-04 10:46 | 72.39295 | -14.73781 | 34114 ft | 477 kts | 334° |
| 2026-05-04 10:47 | 72.45154 | -14.83699 | 34117 ft | 477 kts | 334° |
| 2026-05-04 10:47 | 72.51042 | -14.93741 | 34123 ft | 477 kts | 334° |
| 2026-05-04 10:49 | 72.74422 | -15.34354 | 34141 ft | 478 kts | 334° |
| 2026-05-04 10:50 | 72.80287 | -15.44733 | 34141 ft | 478 kts | 334° |
| 2026-05-04 10:52 | 73.03610 | -15.86792 | 34155 ft | 478 kts | 333° |
| 2026-05-04 10:52 | 73.09444 | -15.97514 | 34160 ft | 479 kts | 333° |
| 2026-05-04 10:54 | 73.32744 | -16.41167 | 34189 ft | 478 kts | 333° |
| 2026-05-04 10:56 | 73.55963 | -16.86046 | 34206 ft | 479 kts | 332° |
| 2026-05-04 10:57 | 73.61716 | -16.97385 | 34212 ft | 478 kts | 332° |
| 2026-05-04 10:57 | 73.67483 | -17.08843 | 34211 ft | 479 kts | 332° |
| 2026-05-04 10:58 | 73.73253 | -17.20398 | 34218 ft | 480 kts | 333° |
| 2026-05-04 10:58 | 73.79048 | -17.32099 | 34221 ft | 480 kts | 332° |
| 2026-05-04 10:59 | 73.84860 | -17.43927 | 34221 ft | 482 kts | 334° |
| 2026-05-04 10:59 | 73.90661 | -17.55816 | 34249 ft | 488 kts | 332° |
| 2026-05-04 11:00 | 73.96574 | -17.68053 | 34245 ft | 492 kts | 332° |
| 2026-05-04 11:02 | 74.20185 | -18.17946 | 34269 ft | 493 kts | 332° |
| 2026-05-04 11:05 | 74.64032 | -19.15255 | 34291 ft | 494 kts | 331° |
| 2026-05-04 11:06 | 74.69881 | -19.28719 | 34295 ft | 495 kts | 330° |
| 2026-05-04 11:06 | 74.75675 | -19.42179 | 34300 ft | 495 kts | 331° |
| 2026-05-04 11:10 | 75.16106 | -20.38471 | 34306 ft | 496 kts | 330° |
| 2026-05-04 11:12 | 75.39194 | -20.95358 | 34578 ft | 498 kts | 330° |
| 2026-05-04 11:12 | 75.41927 | -21.02232 | 34884 ft | 495 kts | 330° |
| 2026-05-04 11:12 | 75.44811 | -21.09520 | 35133 ft | 495 kts | 330° |
| 2026-05-04 11:13 | 75.50579 | -21.24193 | 35247 ft | 496 kts | 330° |
| 2026-05-04 11:13 | 75.56325 | -21.38952 | 35309 ft | 495 kts | 330° |
| 2026-05-04 11:16 | 75.84751 | -22.14042 | 35270 ft | 496 kts | 329° |
| 2026-05-04 11:16 | 75.90498 | -22.29663 | 35272 ft | 496 kts | 329° |
| 2026-05-04 11:17 | 75.96191 | -22.45288 | 35243 ft | 496 kts | 329° |
| 2026-05-04 11:19 | 76.18937 | -23.09264 | 35346 ft | 498 kts | 328° |
| 2026-05-04 11:19 | 76.24605 | -23.25605 | 35340 ft | 498 kts | 328° |
| 2026-05-04 11:20 | 76.30252 | -23.42048 | 35332 ft | 498 kts | 328° |
| 2026-05-04 11:20 | 76.35886 | -23.58621 | 35314 ft | 498 kts | 328° |
| 2026-05-04 11:22 | 76.55623 | -24.18012 | 35201 ft | 498 kts | 327° |
| 2026-05-04 11:22 | 76.58443 | -24.26675 | 35210 ft | 498 kts | 327° |
| 2026-05-04 11:23 | 76.64043 | -24.44009 | 35220 ft | 498 kts | 327° |
| 2026-05-04 11:25 | 76.83531 | -25.05757 | 35153 ft | 499 kts | 326° |
| 2026-05-04 11:25 | 76.89072 | -25.23730 | 35151 ft | 499 kts | 326° |
| 2026-05-04 11:27 | 77.13901 | -26.06672 | 35135 ft | 499 kts | 325° |
| 2026-05-04 11:28 | 77.19371 | -26.25493 | 35143 ft | 499 kts | 325° |
| 2026-05-04 11:28 | 77.24863 | -26.44598 | 35138 ft | 499 kts | 325° |
| 2026-05-04 11:29 | 77.30295 | -26.63698 | 35143 ft | 500 kts | 325° |
| 2026-05-04 11:29 | 77.35770 | -26.83163 | 35130 ft | 501 kts | 324° |
| 2026-05-04 11:33 | 77.73580 | -28.23775 | 35164 ft | 502 kts | 323° |
| 2026-05-04 11:33 | 77.78931 | -28.44598 | 35163 ft | 502 kts | 323° |
| 2026-05-04 11:34 | 77.84286 | -28.65678 | 35160 ft | 502 kts | 322° |
| 2026-05-04 11:34 | 77.89597 | -28.86836 | 35162 ft | 503 kts | 322° |
| 2026-05-04 11:35 | 77.94885 | -29.08143 | 35158 ft | 503 kts | 322° |
| 2026-05-04 11:35 | 78.00177 | -29.29721 | 35161 ft | 503 kts | 322° |
| 2026-05-04 11:36 | 78.05480 | -29.51601 | 35171 ft | 503 kts | 322° |
| 2026-05-04 11:36 | 78.10731 | -29.73528 | 35162 ft | 504 kts | 321° |
| 2026-05-04 11:37 | 78.16009 | -29.95828 | 35163 ft | 504 kts | 321° |
| 2026-05-04 11:37 | 78.21217 | -30.18104 | 35157 ft | 503 kts | 321° |
| 2026-05-04 11:38 | 78.26424 | -30.40650 | 35153 ft | 502 kts | 321° |
| 2026-05-04 11:38 | 78.31638 | -30.63493 | 35152 ft | 503 kts | 321° |
| 2026-05-04 11:39 | 78.36804 | -30.86412 | 35148 ft | 504 kts | 320° |
| 2026-05-04 11:41 | 78.54823 | -31.68611 | 35137 ft | 504 kts | 319° |
| 2026-05-04 11:41 | 78.59922 | -31.92536 | 35132 ft | 504 kts | 319° |
| 2026-05-04 11:42 | 78.65013 | -32.16726 | 35131 ft | 504 kts | 319° |
| 2026-05-04 11:42 | 78.70078 | -32.41103 | 35130 ft | 506 kts | 319° |
| 2026-05-04 11:43 | 78.75118 | -32.65674 | 35114 ft | 505 kts | 318° |
| 2026-05-04 11:43 | 78.80148 | -32.90506 | 35113 ft | 505 kts | 318° |
| 2026-05-04 11:44 | 78.85172 | -33.15644 | 35114 ft | 505 kts | 318° |
| 2026-05-04 11:44 | 78.90138 | -33.40814 | 35118 ft | 504 kts | 318° |
| 2026-05-04 11:45 | 78.95090 | -33.66236 | 35112 ft | 505 kts | 317° |
| 2026-05-04 11:45 | 79.00056 | -33.92079 | 35110 ft | 506 kts | 317° |
| 2026-05-04 11:46 | 79.04990 | -34.18097 | 35116 ft | 505 kts | 317° |
| 2026-05-04 11:46 | 79.09894 | -34.44300 | 35118 ft | 506 kts | 317° |
| 2026-05-04 11:47 | 79.14790 | -34.70824 | 35122 ft | 506 kts | 316° |
| 2026-05-04 11:47 | 79.19670 | -34.97619 | 35126 ft | 506 kts | 316° |
| 2026-05-04 11:48 | 79.24493 | -35.24464 | 35131 ft | 506 kts | 316° |
| 2026-05-04 11:48 | 79.29279 | -35.51468 | 35130 ft | 506 kts | 316° |
| 2026-05-04 11:49 | 79.34077 | -35.78919 | 35129 ft | 507 kts | 315° |
| 2026-05-04 11:49 | 79.38876 | -36.06752 | 35123 ft | 507 kts | 315° |
| 2026-05-04 11:50 | 79.43623 | -36.34687 | 35126 ft | 506 kts | 315° |
| 2026-05-04 11:50 | 79.48390 | -36.63131 | 35129 ft | 507 kts | 315° |
| 2026-05-04 11:51 | 79.53077 | -36.91501 | 35133 ft | 506 kts | 314° |
| 2026-05-04 11:51 | 79.57753 | -37.20211 | 35135 ft | 506 kts | 314° |
| 2026-05-04 11:52 | 79.62410 | -37.49218 | 35140 ft | 507 kts | 314° |
| 2026-05-04 11:52 | 79.67059 | -37.78599 | 35137 ft | 509 kts | 313° |
| 2026-05-04 11:53 | 79.71680 | -38.08237 | 35136 ft | 508 kts | 313° |
| 2026-05-04 11:53 | 79.76249 | -38.37971 | 35154 ft | 508 kts | 313° |
| 2026-05-04 11:55 | 79.94303 | -39.59947 | 35153 ft | 508 kts | 312° |
| 2026-05-04 11:56 | 79.98747 | -39.91008 | 35157 ft | 508 kts | 313° |
| 2026-05-04 11:56 | 80.03400 | -40.21281 | 35165 ft | 507 kts | 314° |
| 2026-05-04 11:57 | 80.08061 | -40.51628 | 35162 ft | 507 kts | 314° |
| 2026-05-04 11:57 | 80.12711 | -40.82263 | 35169 ft | 507 kts | 313° |
| 2026-05-04 11:58 | 80.17331 | -41.13136 | 35169 ft | 507 kts | 313° |
| 2026-05-04 11:58 | 80.21902 | -41.44117 | 35177 ft | 507 kts | 313° |
| 2026-05-04 11:59 | 80.26450 | -41.75410 | 35180 ft | 506 kts | 312° |
| 2026-05-04 11:59 | 80.30965 | -42.06955 | 35188 ft | 506 kts | 312° |
| 2026-05-04 12:00 | 80.35487 | -42.39054 | 35199 ft | 506 kts | 312° |
| 2026-05-04 12:00 | 80.39950 | -42.71225 | 35204 ft | 506 kts | 311° |
| 2026-05-04 12:01 | 80.44359 | -43.03518 | 35208 ft | 506 kts | 311° |
| 2026-05-04 12:02 | 80.59654 | -44.19687 | 35220 ft | 507 kts | 310° |
| 2026-05-04 12:03 | 80.63961 | -44.53623 | 35227 ft | 507 kts | 310° |
| 2026-05-04 12:03 | 80.68225 | -44.87794 | 35246 ft | 507 kts | 309° |
| 2026-05-04 12:04 | 80.72482 | -45.22483 | 35268 ft | 507 kts | 309° |
| 2026-05-04 12:04 | 80.76687 | -45.57329 | 35284 ft | 507 kts | 308° |
| 2026-05-04 12:05 | 80.80840 | -45.92347 | 35300 ft | 508 kts | 308° |
| 2026-05-04 12:05 | 80.85008 | -46.28101 | 35312 ft | 508 kts | 307° |
| 2026-05-04 12:06 | 80.89097 | -46.63786 | 35327 ft | 509 kts | 307° |
| 2026-05-04 12:06 | 80.93194 | -47.00179 | 35339 ft | 509 kts | 306° |
| 2026-05-04 12:07 | 80.97231 | -47.36676 | 35365 ft | 508 kts | 306° |
| 2026-05-04 12:07 | 81.01241 | -47.73592 | 35372 ft | 509 kts | 305° |
| 2026-05-04 12:08 | 81.05190 | -48.10615 | 35368 ft | 509 kts | 305° |
| 2026-05-04 12:08 | 81.09117 | -48.48094 | 35381 ft | 508 kts | 305° |
| 2026-05-04 12:09 | 81.13016 | -48.85997 | 35409 ft | 508 kts | 304° |
| 2026-05-04 12:09 | 81.16875 | -49.24217 | 35431 ft | 507 kts | 304° |
| 2026-05-04 12:10 | 81.20662 | -49.62439 | 35461 ft | 507 kts | 304° |
| 2026-05-04 12:10 | 81.24445 | -50.01348 | 35490 ft | 509 kts | 303° |
| 2026-05-04 12:11 | 81.28179 | -50.40492 | 35504 ft | 510 kts | 303° |
| 2026-05-04 12:11 | 81.31882 | -50.80064 | 35497 ft | 509 kts | 302° |
| 2026-05-04 12:12 | 81.35534 | -51.19875 | 35485 ft | 509 kts | 302° |
| 2026-05-04 12:12 | 81.39172 | -51.60314 | 35481 ft | 509 kts | 302° |
| 2026-05-04 12:14 | 81.53193 | -53.24279 | 35439 ft | 510 kts | 300° |
| 2026-05-04 12:15 | 81.56618 | -53.66458 | 35470 ft | 510 kts | 299° |
| 2026-05-04 12:15 | 81.59958 | -54.08472 | 35506 ft | 509 kts | 299° |
| 2026-05-04 12:16 | 81.63285 | -54.51241 | 35552 ft | 507 kts | 299° |
| 2026-05-04 12:16 | 81.66531 | -54.93872 | 35546 ft | 509 kts | 298° |
| 2026-05-04 12:17 | 81.69741 | -55.36983 | 35486 ft | 508 kts | 297° |
| 2026-05-04 12:17 | 81.72917 | -55.80592 | 35483 ft | 509 kts | 297° |
| 2026-05-04 12:18 | 81.76048 | -56.24575 | 35464 ft | 510 kts | 296° |
| 2026-05-04 12:18 | 81.79132 | -56.68888 | 35465 ft | 510 kts | 295° |
| 2026-05-04 12:19 | 81.82158 | -57.13403 | 35491 ft | 510 kts | 296° |
| 2026-05-04 12:19 | 81.85133 | -57.58221 | 35514 ft | 509 kts | 296° |
| 2026-05-04 12:20 | 81.88071 | -58.03545 | 35509 ft | 508 kts | 295° |
| 2026-05-04 12:20 | 81.90927 | -58.48714 | 35538 ft | 509 kts | 295° |
| 2026-05-04 12:21 | 81.93762 | -58.94655 | 35575 ft | 511 kts | 294° |
| 2026-05-04 12:21 | 81.96553 | -59.41036 | 35546 ft | 510 kts | 294° |
| 2026-05-04 12:22 | 81.98637 | -59.89078 | 35601 ft | 510 kts | 281° |
| 2026-05-04 12:22 | 81.99783 | -60.39187 | 35652 ft | 509 kts | 278° |
| 2026-05-04 12:23 | 82.00607 | -60.89121 | 35659 ft | 509 kts | 275° |
| 2026-05-04 12:23 | 82.01244 | -61.39715 | 35654 ft | 510 kts | 274° |
| 2026-05-04 12:24 | 82.01740 | -61.90139 | 35648 ft | 510 kts | 273° |
| 2026-05-04 12:24 | 82.02136 | -62.40718 | 35641 ft | 510 kts | 272° |
| 2026-05-04 12:25 | 82.02450 | -62.91646 | 35588 ft | 510 kts | 271° |
| 2026-05-04 12:25 | 82.02687 | -63.42292 | 35550 ft | 510 kts | 271° |
| 2026-05-04 12:26 | 82.02856 | -63.92975 | 35471 ft | 510 kts | 270° |
| 2026-05-04 12:26 | 82.02960 | -64.43816 | 35443 ft | 511 kts | 270° |
| 2026-05-04 12:27 | 82.03000 | -64.94855 | 35438 ft | 512 kts | 269° |
| 2026-05-04 12:27 | 82.02977 | -65.45860 | 35489 ft | 511 kts | 269° |
| 2026-05-04 12:28 | 82.02891 | -65.96771 | 35486 ft | 510 kts | 268° |
| 2026-05-04 12:28 | 82.02743 | -66.47392 | 35482 ft | 511 kts | 268° |
| 2026-05-04 12:29 | 82.02531 | -66.98495 | 35500 ft | 512 kts | 267° |
| 2026-05-04 12:29 | 82.02258 | -67.49423 | 35565 ft | 512 kts | 267° |
| 2026-05-04 12:30 | 82.01924 | -67.99993 | 35576 ft | 511 kts | 266° |
| 2026-05-04 12:30 | 82.01525 | -68.51017 | 35571 ft | 511 kts | 266° |
| 2026-05-04 12:31 | 82.01066 | -69.01730 | 35545 ft | 512 kts | 265° |
| 2026-05-04 12:31 | 82.00545 | -69.52382 | 35535 ft | 513 kts | 265° |
| 2026-05-04 12:32 | 81.99857 | -70.28174 | 35549 ft | 512 kts | 272° |
| 2026-05-04 12:33 | 82.00542 | -70.79219 | 35377 ft | 514 kts | 275° |
| 2026-05-04 12:33 | 82.01174 | -71.29798 | 35354 ft | 513 kts | 274° |
| 2026-05-04 12:34 | 82.01681 | -71.80843 | 35373 ft | 515 kts | 273° |
| 2026-05-04 12:34 | 82.02084 | -72.31559 | 35281 ft | 512 kts | 272° |
| 2026-05-04 12:35 | 82.02408 | -72.82794 | 35258 ft | 513 kts | 271° |
| 2026-05-04 12:35 | 82.02656 | -73.33665 | 35265 ft | 514 kts | 271° |
| 2026-05-04 12:36 | 82.02836 | -73.84760 | 35245 ft | 513 kts | 270° |
| 2026-05-04 12:36 | 82.02949 | -74.35814 | 35261 ft | 514 kts | 270° |
| 2026-05-04 12:37 | 82.02999 | -74.87031 | 35179 ft | 512 kts | 269° |
| 2026-05-04 12:37 | 82.02985 | -75.38312 | 35245 ft | 514 kts | 269° |
| 2026-05-04 12:38 | 82.02908 | -75.89324 | 35290 ft | 513 kts | 268° |
| 2026-05-04 12:38 | 82.02767 | -76.40337 | 35266 ft | 514 kts | 268° |
| 2026-05-04 12:39 | 82.02564 | -76.91351 | 35207 ft | 512 kts | 267° |
| 2026-05-04 12:39 | 82.02297 | -77.42628 | 35227 ft | 513 kts | 267° |
| 2026-05-04 12:40 | 82.01970 | -77.93587 | 35187 ft | 513 kts | 266° |
| 2026-05-04 12:40 | 82.01581 | -78.44304 | 35256 ft | 513 kts | 266° |
| 2026-05-04 12:41 | 82.01126 | -78.95473 | 35289 ft | 512 kts | 265° |
| 2026-05-04 12:41 | 82.00877 | -79.20774 | 35392 ft | 511 kts | 265° |
| 2026-05-04 12:41 | 82.00613 | -79.46095 | 35517 ft | 512 kts | 265° |
| 2026-05-04 12:42 | 81.99967 | -79.96699 | 35642 ft | 511 kts | 262° |
| 2026-05-04 12:42 | 81.98933 | -80.46925 | 35675 ft | 511 kts | 261° |
| 2026-05-04 12:43 | 81.97813 | -80.96784 | 35582 ft | 513 kts | 259° |
| 2026-05-04 12:43 | 81.97221 | -81.21877 | 35401 ft | 513 kts | 259° |
| 2026-05-04 12:43 | 81.96609 | -81.47034 | 35391 ft | 510 kts | 259° |
| 2026-05-04 12:44 | 81.95352 | -81.96619 | 35493 ft | 512 kts | 258° |
| 2026-05-04 12:44 | 81.94034 | -82.46036 | 35419 ft | 513 kts | 258° |
| 2026-05-04 12:45 | 81.92650 | -82.95476 | 35382 ft | 511 kts | 257° |
| 2026-05-04 12:45 | 81.91213 | -83.44500 | 35407 ft | 512 kts | 257° |
| 2026-05-04 12:46 | 81.89702 | -83.93823 | 35428 ft | 512 kts | 256° |
| 2026-05-04 12:46 | 81.88139 | -84.42739 | 35467 ft | 514 kts | 257° |
| 2026-05-04 12:47 | 81.86515 | -84.91556 | 35469 ft | 513 kts | 256° |
| 2026-05-04 12:47 | 81.84830 | -85.40238 | 35463 ft | 514 kts | 256° |
| 2026-05-04 12:48 | 81.83103 | -85.88319 | 35540 ft | 512 kts | 254° |
| 2026-05-04 12:48 | 81.81296 | -86.36797 | 35532 ft | 513 kts | 254° |
| 2026-05-04 12:49 | 81.79443 | -86.84754 | 35541 ft | 513 kts | 253° |
| 2026-05-04 12:49 | 81.77537 | -87.32411 | 35533 ft | 513 kts | 253° |
| 2026-05-04 12:50 | 81.75563 | -87.80150 | 35491 ft | 513 kts | 252° |
| 2026-05-04 12:50 | 81.73541 | -88.27461 | 35535 ft | 514 kts | 252° |
| 2026-05-04 12:51 | 81.71465 | -88.74538 | 35546 ft | 513 kts | 251° |
| 2026-05-04 12:51 | 81.69338 | -89.21265 | 35628 ft | 513 kts | 251° |
| 2026-05-04 12:52 | 81.67149 | -89.67916 | 35574 ft | 514 kts | 250° |
| 2026-05-04 12:52 | 81.64904 | -90.14352 | 35553 ft | 513 kts | 250° |
| 2026-05-04 12:53 | 81.62615 | -90.60345 | 35582 ft | 514 kts | 250° |
| 2026-05-04 12:53 | 81.60268 | -91.06197 | 35606 ft | 513 kts | 249° |
| 2026-05-04 12:54 | 81.57848 | -91.52162 | 35637 ft | 515 kts | 249° |
| 2026-05-04 12:54 | 81.55406 | -91.97315 | 35645 ft | 514 kts | 248° |
| 2026-05-04 12:55 | 81.52894 | -92.42529 | 35622 ft | 514 kts | 248° |
| 2026-05-04 12:55 | 81.50330 | -92.87481 | 35631 ft | 514 kts | 247° |
| 2026-05-04 12:56 | 81.47720 | -93.32066 | 35624 ft | 513 kts | 248° |
| 2026-05-04 12:56 | 81.45060 | -93.76360 | 35626 ft | 514 kts | 246° |
| 2026-05-04 12:57 | 81.42343 | -94.20503 | 35621 ft | 514 kts | 246° |
| 2026-05-04 12:57 | 81.39581 | -94.64293 | 35626 ft | 515 kts | 246° |
| 2026-05-04 12:58 | 81.36755 | -95.08031 | 35627 ft | 515 kts | 245° |
| 2026-05-04 12:58 | 81.33892 | -95.51289 | 35623 ft | 514 kts | 245° |
| 2026-05-04 12:59 | 81.31000 | -95.93999 | 35629 ft | 514 kts | 244° |
| 2026-05-04 12:59 | 81.28046 | -96.36623 | 35623 ft | 515 kts | 244° |
| 2026-05-04 13:00 | 81.25019 | -96.79315 | 35623 ft | 516 kts | 243° |
| 2026-05-04 13:00 | 81.21973 | -97.21323 | 35628 ft | 516 kts | 244° |
| 2026-05-04 13:01 | 81.18864 | -97.63280 | 35632 ft | 515 kts | 244° |
| 2026-05-04 13:01 | 81.15709 | -98.04933 | 35629 ft | 515 kts | 243° |
| 2026-05-04 13:02 | 81.12513 | -98.46225 | 35624 ft | 515 kts | 243° |
| 2026-05-04 13:02 | 81.09288 | -98.87022 | 35615 ft | 515 kts | 242° |
| 2026-05-04 13:03 | 81.06001 | -99.27753 | 35606 ft | 515 kts | 242° |
| 2026-05-04 13:03 | 81.02654 | -99.68357 | 35835 ft | 518 kts | 240° |